sensor_id;sensor_type;location;lat;lon;timestamp;temperature;humidity
55064;DHT22;40963;52.168;21.296;2022-12-24T00:01:33;4.90;99.90
55064;DHT22;40963;52.168;21.296;2022-12-24T00:03:59;4.90;99.90
55064;DHT22;40963;52.168;21.296;2022-12-24T00:06:24;4.90;99.90
55064;DHT22;40963;52.168;21.296;2022-12-24T00:08:51;4.90;99.90
55064;DHT22;40963;52.168;21.296;2022-12-24T00:11:17;4.90;99.90
55064;DHT22;40963;52.168;21.296;2022-12-24T00:13:43;4.90;99.90
55064;DHT22;40963;52.168;21.296;2022-12-24T00:16:09;4.90;99.90
55064;DHT22;40963;52.168;21.296;2022-12-24T00:18:34;4.90;99.90
55064;DHT22;40963;52.168;21.296;2022-12-24T00:21:00;4.90;99.90
55064;DHT22;40963;52.168;21.296;2022-12-24T00:23:28;4.90;99.90
55064;DHT22;40963;52.168;21.296;2022-12-24T00:25:54;4.90;99.90
55064;DHT22;40963;52.168;21.296;2022-12-24T00:28:20;4.80;99.90
55064;DHT22;40963;52.168;21.296;2022-12-24T00:30:46;4.80;99.90
55064;DHT22;40963;52.168;21.296;2022-12-24T00:33:11;4.80;99.90
55064;DHT22;40963;52.168;21.296;2022-12-24T00:35:38;4.80;99.90
55064;DHT22;40963;52.168;21.296;2022-12-24T00:38:04;4.80;99.90
55064;DHT22;40963;52.168;21.296;2022-12-24T00:40:30;4.80;99.90
55064;DHT22;40963;52.168;21.296;2022-12-24T00:42:56;4.80;99.90
55064;DHT22;40963;52.168;21.296;2022-12-24T00:45:22;4.80;99.90
55064;DHT22;40963;52.168;21.296;2022-12-24T00:47:48;4.80;99.90
55064;DHT22;40963;52.168;21.296;2022-12-24T00:50:13;4.80;99.90
55064;DHT22;40963;52.168;21.296;2022-12-24T00:52:39;4.80;99.90
55064;DHT22;40963;52.168;21.296;2022-12-24T00:55:05;4.80;99.90
55064;DHT22;40963;52.168;21.296;2022-12-24T00:57:31;4.80;99.90
55064;DHT22;40963;52.168;21.296;2022-12-24T00:59:56;4.90;99.90
55064;DHT22;40963;52.168;21.296;2022-12-24T01:02:22;4.80;99.90
55064;DHT22;40963;52.168;21.296;2022-12-24T01:04:48;4.80;99.90
55064;DHT22;40963;52.168;21.296;2022-12-24T01:07:31;4.80;99.90
55064;DHT22;40963;52.168;21.296;2022-12-24T01:09:57;4.80;99.90
55064;DHT22;40963;52.168;21.296;2022-12-24T01:12:23;4.80;99.90
55064;DHT22;40963;52.168;21.296;2022-12-24T01:14:49;4.70;99.90
55064;DHT22;40963;52.168;21.296;2022-12-24T01:17:15;4.70;99.90
55064;DHT22;40963;52.168;21.296;2022-12-24T01:19:40;4.70;99.90
55064;DHT22;40963;52.168;21.296;2022-12-24T01:22:06;4.70;99.90
55064;DHT22;40963;52.168;21.296;2022-12-24T01:24:32;4.70;99.90
55064;DHT22;40963;52.168;21.296;2022-12-24T01:26:57;4.70;99.90
55064;DHT22;40963;52.168;21.296;2022-12-24T01:29:23;4.70;99.90
55064;DHT22;40963;52.168;21.296;2022-12-24T01:31:48;4.70;99.90
55064;DHT22;40963;52.168;21.296;2022-12-24T01:34:14;4.70;99.90
55064;DHT22;40963;52.168;21.296;2022-12-24T01:36:40;4.70;99.90
55064;DHT22;40963;52.168;21.296;2022-12-24T01:39:05;4.70;99.90
55064;DHT22;40963;52.168;21.296;2022-12-24T01:41:31;4.80;99.90
55064;DHT22;40963;52.168;21.296;2022-12-24T01:44:26;4.80;99.90
55064;DHT22;40963;52.168;21.296;2022-12-24T01:47:42;4.80;99.90
55064;DHT22;40963;52.168;21.296;2022-12-24T01:49:49;4.80;99.90
55064;DHT22;40963;52.168;21.296;2022-12-24T01:52:20;4.70;99.90
55064;DHT22;40963;52.168;21.296;2022-12-24T01:54:49;4.70;99.90
55064;DHT22;40963;52.168;21.296;2022-12-24T01:57:21;4.60;99.90
55064;DHT22;40963;52.168;21.296;2022-12-24T01:59:50;4.70;99.90
55064;DHT22;40963;52.168;21.296;2022-12-24T02:02:17;4.70;99.90
55064;DHT22;40963;52.168;21.296;2022-12-24T02:04:56;4.70;99.90
55064;DHT22;40963;52.168;21.296;2022-12-24T02:07:24;4.70;99.90
55064;DHT22;40963;52.168;21.296;2022-12-24T02:09:54;4.70;99.90
55064;DHT22;40963;52.168;21.296;2022-12-24T02:12:20;4.70;99.90
55064;DHT22;40963;52.168;21.296;2022-12-24T02:14:46;4.70;99.90
55064;DHT22;40963;52.168;21.296;2022-12-24T02:17:20;4.60;99.90
55064;DHT22;40963;52.168;21.296;2022-12-24T02:30:44;4.60;99.90
55064;DHT22;40963;52.168;21.296;2022-12-24T02:36:05;4.50;99.90
55064;DHT22;40963;52.168;21.296;2022-12-24T02:38:47;4.50;99.90
55064;DHT22;40963;52.168;21.296;2022-12-24T02:41:18;4.50;99.90
55064;DHT22;40963;52.168;21.296;2022-12-24T02:43:47;4.60;99.90
55064;DHT22;40963;52.168;21.296;2022-12-24T02:46:21;4.50;99.90
55064;DHT22;40963;52.168;21.296;2022-12-24T02:48:48;4.60;99.90
55064;DHT22;40963;52.168;21.296;2022-12-24T02:51:14;4.60;99.90
55064;DHT22;40963;52.168;21.296;2022-12-24T02:53:40;4.60;99.90
55064;DHT22;40963;52.168;21.296;2022-12-24T03:07:16;4.50;99.90
55064;DHT22;40963;52.168;21.296;2022-12-24T03:12:53;4.40;99.90
55064;DHT22;40963;52.168;21.296;2022-12-24T03:15:23;4.40;99.90
55064;DHT22;40963;52.168;21.296;2022-12-24T03:17:53;4.30;99.90
55064;DHT22;40963;52.168;21.296;2022-12-24T03:20:24;4.30;99.90
55064;DHT22;40963;52.168;21.296;2022-12-24T03:22:51;4.40;99.90
55064;DHT22;40963;52.168;21.296;2022-12-24T03:25:17;4.40;99.90
55064;DHT22;40963;52.168;21.296;2022-12-24T03:27:45;4.40;99.90
55064;DHT22;40963;52.168;21.296;2022-12-24T03:30:12;4.40;99.90
55064;DHT22;40963;52.168;21.296;2022-12-24T03:32:38;4.40;99.90
55064;DHT22;40963;52.168;21.296;2022-12-24T03:35:05;4.40;99.90
55064;DHT22;40963;52.168;21.296;2022-12-24T03:37:31;4.40;99.90
55064;DHT22;40963;52.168;21.296;2022-12-24T03:39:57;4.40;99.90
55064;DHT22;40963;52.168;21.296;2022-12-24T03:42:23;4.40;99.90
55064;DHT22;40963;52.168;21.296;2022-12-24T03:44:48;4.40;99.90
55064;DHT22;40963;52.168;21.296;2022-12-24T03:47:14;4.40;99.90
55064;DHT22;40963;52.168;21.296;2022-12-24T03:49:40;4.40;99.90
55064;DHT22;40963;52.168;21.296;2022-12-24T03:52:05;4.40;99.90
55064;DHT22;40963;52.168;21.296;2022-12-24T03:54:31;4.40;99.90
55064;DHT22;40963;52.168;21.296;2022-12-24T03:56:56;4.40;99.90
55064;DHT22;40963;52.168;21.296;2022-12-24T03:59:22;4.40;99.90
55064;DHT22;40963;52.168;21.296;2022-12-24T04:01:47;4.40;99.90
55064;DHT22;40963;52.168;21.296;2022-12-24T04:04:13;4.40;99.90
55064;DHT22;40963;52.168;21.296;2022-12-24T04:06:39;4.40;99.90
55064;DHT22;40963;52.168;21.296;2022-12-24T04:09:04;4.40;99.90
55064;DHT22;40963;52.168;21.296;2022-12-24T04:11:31;4.40;99.90
55064;DHT22;40963;52.168;21.296;2022-12-24T04:13:57;4.40;99.90
55064;DHT22;40963;52.168;21.296;2022-12-24T04:16:23;4.50;99.90
55064;DHT22;40963;52.168;21.296;2022-12-24T04:18:49;4.50;99.90
55064;DHT22;40963;52.168;21.296;2022-12-24T04:21:15;4.50;99.90
55064;DHT22;40963;52.168;21.296;2022-12-24T04:23:41;4.60;99.90
55064;DHT22;40963;52.168;21.296;2022-12-24T04:26:09;4.60;99.90
55064;DHT22;40963;52.168;21.296;2022-12-24T04:28:35;4.60;99.90
55064;DHT22;40963;52.168;21.296;2022-12-24T04:31:04;4.60;99.90
55064;DHT22;40963;52.168;21.296;2022-12-24T04:33:30;4.60;99.90
55064;DHT22;40963;52.168;21.296;2022-12-24T04:35:57;4.60;99.90
55064;DHT22;40963;52.168;21.296;2022-12-24T04:38:23;4.60;99.90
55064;DHT22;40963;52.168;21.296;2022-12-24T04:40:57;4.60;99.90
55064;DHT22;40963;52.168;21.296;2022-12-24T04:43:23;4.50;99.90
55064;DHT22;40963;52.168;21.296;2022-12-24T04:45:49;4.50;99.90
55064;DHT22;40963;52.168;21.296;2022-12-24T04:48:14;4.50;99.90
55064;DHT22;40963;52.168;21.296;2022-12-24T04:50:40;4.50;99.90
55064;DHT22;40963;52.168;21.296;2022-12-24T04:53:05;4.50;99.90
55064;DHT22;40963;52.168;21.296;2022-12-24T04:55:31;4.50;99.90
55064;DHT22;40963;52.168;21.296;2022-12-24T04:57:56;4.50;99.90
55064;DHT22;40963;52.168;21.296;2022-12-24T05:00:22;4.50;99.90
55064;DHT22;40963;52.168;21.296;2022-12-24T05:02:48;4.60;99.90
55064;DHT22;40963;52.168;21.296;2022-12-24T05:05:13;4.60;99.90
55064;DHT22;40963;52.168;21.296;2022-12-24T05:07:39;4.60;99.90
55064;DHT22;40963;52.168;21.296;2022-12-24T05:10:05;4.70;99.90
55064;DHT22;40963;52.168;21.296;2022-12-24T05:12:31;4.70;99.90
55064;DHT22;40963;52.168;21.296;2022-12-24T05:14:57;4.70;99.90
55064;DHT22;40963;52.168;21.296;2022-12-24T05:17:22;4.70;99.90
55064;DHT22;40963;52.168;21.296;2022-12-24T05:19:48;4.70;99.90
55064;DHT22;40963;52.168;21.296;2022-12-24T05:22:13;4.70;99.90
55064;DHT22;40963;52.168;21.296;2022-12-24T05:24:57;4.70;99.90
55064;DHT22;40963;52.168;21.296;2022-12-24T05:27:41;4.80;99.90
55064;DHT22;40963;52.168;21.296;2022-12-24T05:30:08;4.80;99.90
55064;DHT22;40963;52.168;21.296;2022-12-24T05:32:33;4.80;99.90
55064;DHT22;40963;52.168;21.296;2022-12-24T05:34:59;4.80;99.90
55064;DHT22;40963;52.168;21.296;2022-12-24T05:37:24;4.80;99.90
55064;DHT22;40963;52.168;21.296;2022-12-24T05:39:50;4.80;99.90
55064;DHT22;40963;52.168;21.296;2022-12-24T05:42:16;4.90;99.90
55064;DHT22;40963;52.168;21.296;2022-12-24T05:44:41;4.90;99.90
55064;DHT22;40963;52.168;21.296;2022-12-24T05:47:07;4.90;99.90
55064;DHT22;40963;52.168;21.296;2022-12-24T05:49:32;4.90;99.90
55064;DHT22;40963;52.168;21.296;2022-12-24T05:51:58;4.80;99.90
55064;DHT22;40963;52.168;21.296;2022-12-24T05:54:24;4.90;99.90
55064;DHT22;40963;52.168;21.296;2022-12-24T05:56:49;4.90;99.90
55064;DHT22;40963;52.168;21.296;2022-12-24T05:59:15;4.90;99.90
55064;DHT22;40963;52.168;21.296;2022-12-24T06:01:40;4.90;99.90
55064;DHT22;40963;52.168;21.296;2022-12-24T06:04:11;4.90;99.90
55064;DHT22;40963;52.168;21.296;2022-12-24T06:06:37;4.90;99.90
55064;DHT22;40963;52.168;21.296;2022-12-24T06:09:02;4.90;99.90
55064;DHT22;40963;52.168;21.296;2022-12-24T06:11:28;4.90;99.90
55064;DHT22;40963;52.168;21.296;2022-12-24T06:13:54;4.90;99.90
55064;DHT22;40963;52.168;21.296;2022-12-24T06:16:21;4.90;99.90
55064;DHT22;40963;52.168;21.296;2022-12-24T06:18:47;4.90;99.90
55064;DHT22;40963;52.168;21.296;2022-12-24T06:21:13;4.90;99.90
55064;DHT22;40963;52.168;21.296;2022-12-24T06:23:41;5.00;99.90
55064;DHT22;40963;52.168;21.296;2022-12-24T06:26:08;4.90;99.90
55064;DHT22;40963;52.168;21.296;2022-12-24T06:28:36;4.90;99.90
55064;DHT22;40963;52.168;21.296;2022-12-24T06:31:02;4.90;99.90
55064;DHT22;40963;52.168;21.296;2022-12-24T06:33:29;4.90;99.90
55064;DHT22;40963;52.168;21.296;2022-12-24T06:35:55;4.90;99.90
55064;DHT22;40963;52.168;21.296;2022-12-24T06:38:21;5.00;99.90
55064;DHT22;40963;52.168;21.296;2022-12-24T06:40:46;4.90;99.90
55064;DHT22;40963;52.168;21.296;2022-12-24T06:43:13;4.90;99.90
55064;DHT22;40963;52.168;21.296;2022-12-24T06:45:38;5.00;99.90
55064;DHT22;40963;52.168;21.296;2022-12-24T06:48:05;4.90;99.90
55064;DHT22;40963;52.168;21.296;2022-12-24T06:50:32;5.00;99.90
55064;DHT22;40963;52.168;21.296;2022-12-24T06:52:58;4.90;99.90
55064;DHT22;40963;52.168;21.296;2022-12-24T06:55:23;4.90;99.90
55064;DHT22;40963;52.168;21.296;2022-12-24T06:57:49;5.00;99.90
55064;DHT22;40963;52.168;21.296;2022-12-24T07:00:15;5.00;99.90
55064;DHT22;40963;52.168;21.296;2022-12-24T07:02:42;5.00;99.90
55064;DHT22;40963;52.168;21.296;2022-12-24T07:05:09;5.00;99.90
55064;DHT22;40963;52.168;21.296;2022-12-24T07:07:37;5.00;99.90
55064;DHT22;40963;52.168;21.296;2022-12-24T07:10:04;5.00;99.90
55064;DHT22;40963;52.168;21.296;2022-12-24T07:12:30;5.00;99.90
55064;DHT22;40963;52.168;21.296;2022-12-24T07:14:56;5.10;99.90
55064;DHT22;40963;52.168;21.296;2022-12-24T07:17:21;5.00;99.90
55064;DHT22;40963;52.168;21.296;2022-12-24T07:19:47;5.00;99.90
55064;DHT22;40963;52.168;21.296;2022-12-24T07:22:12;5.00;99.90
55064;DHT22;40963;52.168;21.296;2022-12-24T07:24:38;5.00;99.90
55064;DHT22;40963;52.168;21.296;2022-12-24T07:27:03;5.10;99.90
55064;DHT22;40963;52.168;21.296;2022-12-24T07:29:29;5.10;99.90
55064;DHT22;40963;52.168;21.296;2022-12-24T07:31:55;5.00;99.90
55064;DHT22;40963;52.168;21.296;2022-12-24T07:34:20;5.10;99.90
55064;DHT22;40963;52.168;21.296;2022-12-24T07:36:46;5.10;99.90
55064;DHT22;40963;52.168;21.296;2022-12-24T07:39:11;5.00;99.90
55064;DHT22;40963;52.168;21.296;2022-12-24T07:41:37;5.00;99.90
55064;DHT22;40963;52.168;21.296;2022-12-24T07:44:02;5.10;99.90
55064;DHT22;40963;52.168;21.296;2022-12-24T07:46:28;5.10;99.90
55064;DHT22;40963;52.168;21.296;2022-12-24T07:48:54;5.10;99.90
55064;DHT22;40963;52.168;21.296;2022-12-24T07:51:19;5.10;99.90
55064;DHT22;40963;52.168;21.296;2022-12-24T07:53:45;5.10;99.90
55064;DHT22;40963;52.168;21.296;2022-12-24T07:56:15;5.10;99.90
55064;DHT22;40963;52.168;21.296;2022-12-24T07:58:41;5.10;99.90
55064;DHT22;40963;52.168;21.296;2022-12-24T08:01:07;5.10;99.90
55064;DHT22;40963;52.168;21.296;2022-12-24T08:03:33;5.10;99.90
55064;DHT22;40963;52.168;21.296;2022-12-24T08:05:58;5.10;99.90
55064;DHT22;40963;52.168;21.296;2022-12-24T08:08:24;5.10;99.90
55064;DHT22;40963;52.168;21.296;2022-12-24T08:10:50;5.20;99.90
55064;DHT22;40963;52.168;21.296;2022-12-24T08:13:16;5.10;99.90
55064;DHT22;40963;52.168;21.296;2022-12-24T08:15:42;5.10;99.90
55064;DHT22;40963;52.168;21.296;2022-12-24T08:18:09;5.10;99.90
55064;DHT22;40963;52.168;21.296;2022-12-24T08:20:37;5.10;99.90
55064;DHT22;40963;52.168;21.296;2022-12-24T08:23:03;5.20;99.90
55064;DHT22;40963;52.168;21.296;2022-12-24T08:25:29;5.20;99.90
55064;DHT22;40963;52.168;21.296;2022-12-24T08:27:55;5.20;99.90
55064;DHT22;40963;52.168;21.296;2022-12-24T08:30:21;5.20;99.90
55064;DHT22;40963;52.168;21.296;2022-12-24T08:32:46;5.20;99.90
55064;DHT22;40963;52.168;21.296;2022-12-24T08:35:12;5.20;99.90
55064;DHT22;40963;52.168;21.296;2022-12-24T08:37:38;5.20;99.90
55064;DHT22;40963;52.168;21.296;2022-12-24T08:40:04;5.20;99.90
55064;DHT22;40963;52.168;21.296;2022-12-24T08:42:29;5.20;99.90
55064;DHT22;40963;52.168;21.296;2022-12-24T08:44:55;5.20;99.90
55064;DHT22;40963;52.168;21.296;2022-12-24T08:47:20;5.20;99.90
55064;DHT22;40963;52.168;21.296;2022-12-24T08:49:46;5.30;99.90
55064;DHT22;40963;52.168;21.296;2022-12-24T08:52:11;5.30;99.90
55064;DHT22;40963;52.168;21.296;2022-12-24T08:54:37;5.30;99.90
55064;DHT22;40963;52.168;21.296;2022-12-24T08:57:03;5.30;99.90
55064;DHT22;40963;52.168;21.296;2022-12-24T08:59:28;5.30;99.90
55064;DHT22;40963;52.168;21.296;2022-12-24T09:01:54;5.30;99.90
55064;DHT22;40963;52.168;21.296;2022-12-24T09:04:19;5.30;99.90
55064;DHT22;40963;52.168;21.296;2022-12-24T09:06:45;5.30;99.90
55064;DHT22;40963;52.168;21.296;2022-12-24T09:09:10;5.30;99.90
55064;DHT22;40963;52.168;21.296;2022-12-24T09:11:36;5.40;99.90
55064;DHT22;40963;52.168;21.296;2022-12-24T09:14:02;5.40;99.90
55064;DHT22;40963;52.168;21.296;2022-12-24T09:16:27;5.40;99.90
55064;DHT22;40963;52.168;21.296;2022-12-24T09:18:53;5.40;99.90
55064;DHT22;40963;52.168;21.296;2022-12-24T09:21:18;5.40;99.90
55064;DHT22;40963;52.168;21.296;2022-12-24T09:23:46;5.40;99.90
55064;DHT22;40963;52.168;21.296;2022-12-24T09:26:17;5.30;99.90
55064;DHT22;40963;52.168;21.296;2022-12-24T09:28:44;5.30;99.90
55064;DHT22;40963;52.168;21.296;2022-12-24T09:31:11;5.30;99.90
55064;DHT22;40963;52.168;21.296;2022-12-24T09:33:38;5.30;99.90
55064;DHT22;40963;52.168;21.296;2022-12-24T09:36:05;5.30;99.90
55064;DHT22;40963;52.168;21.296;2022-12-24T09:38:31;5.30;99.90
55064;DHT22;40963;52.168;21.296;2022-12-24T09:40:58;5.40;99.90
55064;DHT22;40963;52.168;21.296;2022-12-24T09:43:26;5.40;99.90
55064;DHT22;40963;52.168;21.296;2022-12-24T09:46:11;5.50;99.90
55064;DHT22;40963;52.168;21.296;2022-12-24T09:48:45;5.40;99.90
55064;DHT22;40963;52.168;21.296;2022-12-24T09:56:47;5.50;99.90
55064;DHT22;40963;52.168;21.296;2022-12-24T09:59:43;5.50;99.90
55064;DHT22;40963;52.168;21.296;2022-12-24T10:02:17;5.50;99.90
55064;DHT22;40963;52.168;21.296;2022-12-24T10:04:43;5.50;99.90
55064;DHT22;40963;52.168;21.296;2022-12-24T10:12:48;5.50;99.90
55064;DHT22;40963;52.168;21.296;2022-12-24T10:18:08;5.50;99.90
55064;DHT22;40963;52.168;21.296;2022-12-24T10:20:46;5.40;99.90
55064;DHT22;40963;52.168;21.296;2022-12-24T10:26:24;5.40;99.90
55064;DHT22;40963;52.168;21.296;2022-12-24T10:29:19;5.40;99.90
55064;DHT22;40963;52.168;21.296;2022-12-24T10:34:28;5.40;99.90
55064;DHT22;40963;52.168;21.296;2022-12-24T10:36:56;5.40;99.90
55064;DHT22;40963;52.168;21.296;2022-12-24T10:39:25;5.40;99.90
55064;DHT22;40963;52.168;21.296;2022-12-24T10:41:53;5.40;99.90
55064;DHT22;40963;52.168;21.296;2022-12-24T10:44:27;5.40;99.90
55064;DHT22;40963;52.168;21.296;2022-12-24T10:46:54;5.40;99.90
55064;DHT22;40963;52.168;21.296;2022-12-24T10:49:31;5.40;99.90
55064;DHT22;40963;52.168;21.296;2022-12-24T10:52:04;5.40;99.90
55064;DHT22;40963;52.168;21.296;2022-12-24T10:54:31;5.40;99.90
55064;DHT22;40963;52.168;21.296;2022-12-24T10:57:04;5.40;99.90
55064;DHT22;40963;52.168;21.296;2022-12-24T11:01:59;5.40;99.90
55064;DHT22;40963;52.168;21.296;2022-12-24T11:04:30;5.40;99.90
55064;DHT22;40963;52.168;21.296;2022-12-24T11:07:00;5.40;99.90
55064;DHT22;40963;52.168;21.296;2022-12-24T11:09:27;5.40;99.90
55064;DHT22;40963;52.168;21.296;2022-12-24T11:11:54;5.40;99.90
55064;DHT22;40963;52.168;21.296;2022-12-24T11:14:21;5.40;99.90
55064;DHT22;40963;52.168;21.296;2022-12-24T11:16:56;5.50;99.90
55064;DHT22;40963;52.168;21.296;2022-12-24T11:19:33;5.50;99.90
55064;DHT22;40963;52.168;21.296;2022-12-24T11:22:03;5.40;99.90
55064;DHT22;40963;52.168;21.296;2022-12-24T11:24:37;5.50;99.90
55064;DHT22;40963;52.168;21.296;2022-12-24T11:27:29;5.50;99.90
55064;DHT22;40963;52.168;21.296;2022-12-24T11:32:45;5.40;99.90
55064;DHT22;40963;52.168;21.296;2022-12-24T11:35:32;5.40;99.90
55064;DHT22;40963;52.168;21.296;2022-12-24T11:40:40;5.40;99.90
55064;DHT22;40963;52.168;21.296;2022-12-24T11:43:18;5.40;99.90
55064;DHT22;40963;52.168;21.296;2022-12-24T11:45:55;5.40;99.90
55064;DHT22;40963;52.168;21.296;2022-12-24T11:48:32;5.40;99.90
55064;DHT22;40963;52.168;21.296;2022-12-24T11:51:04;5.40;99.90
55064;DHT22;40963;52.168;21.296;2022-12-24T11:53:55;5.40;99.90
55064;DHT22;40963;52.168;21.296;2022-12-24T11:56:34;5.40;99.90
55064;DHT22;40963;52.168;21.296;2022-12-24T11:59:10;5.40;99.90
55064;DHT22;40963;52.168;21.296;2022-12-24T12:01:56;5.40;99.90
55064;DHT22;40963;52.168;21.296;2022-12-24T12:04:26;5.40;99.90
55064;DHT22;40963;52.168;21.296;2022-12-24T12:07:03;5.40;99.90
55064;DHT22;40963;52.168;21.296;2022-12-24T12:12:44;5.40;99.90
55064;DHT22;40963;52.168;21.296;2022-12-24T12:15:24;5.40;99.90
55064;DHT22;40963;52.168;21.296;2022-12-24T12:18:27;5.40;99.90
55064;DHT22;40963;52.168;21.296;2022-12-24T12:21:00;5.40;99.90
55064;DHT22;40963;52.168;21.296;2022-12-24T12:23:35;5.40;99.90
55064;DHT22;40963;52.168;21.296;2022-12-24T12:28:45;5.30;99.90
55064;DHT22;40963;52.168;21.296;2022-12-24T12:33:50;5.30;99.90
55064;DHT22;40963;52.168;21.296;2022-12-24T12:36:20;5.20;99.90
55064;DHT22;40963;52.168;21.296;2022-12-24T12:38:47;5.30;99.90
55064;DHT22;40963;52.168;21.296;2022-12-24T12:41:47;5.30;99.90
55064;DHT22;40963;52.168;21.296;2022-12-24T12:44:43;5.30;99.90
55064;DHT22;40963;52.168;21.296;2022-12-24T12:50:27;5.30;99.90
55064;DHT22;40963;52.168;21.296;2022-12-24T12:56:01;5.30;99.90
55064;DHT22;40963;52.168;21.296;2022-12-24T12:58:38;5.30;99.90
55064;DHT22;40963;52.168;21.296;2022-12-24T13:01:17;5.30;99.90
55064;DHT22;40963;52.168;21.296;2022-12-24T13:17:55;5.40;99.90
55064;DHT22;40963;52.168;21.296;2022-12-24T13:20:25;5.50;99.90
55064;DHT22;40963;52.168;21.296;2022-12-24T13:22:59;5.50;99.90
55064;DHT22;40963;52.168;21.296;2022-12-24T13:25:36;5.50;99.90
55064;DHT22;40963;52.168;21.296;2022-12-24T13:30:48;5.40;99.90
55064;DHT22;40963;52.168;21.296;2022-12-24T13:51:47;5.30;99.90
55064;DHT22;40963;52.168;21.296;2022-12-24T13:54:18;5.20;99.90
55064;DHT22;40963;52.168;21.296;2022-12-24T13:56:45;5.30;99.90
55064;DHT22;40963;52.168;21.296;2022-12-24T13:59:32;5.20;99.90
55064;DHT22;40963;52.168;21.296;2022-12-24T14:01:59;5.20;99.90
55064;DHT22;40963;52.168;21.296;2022-12-24T14:04:31;5.20;99.90
55064;DHT22;40963;52.168;21.296;2022-12-24T14:07:01;5.20;99.90
55064;DHT22;40963;52.168;21.296;2022-12-24T14:09:28;5.20;99.90
55064;DHT22;40963;52.168;21.296;2022-12-24T14:14:29;5.10;99.90
55064;DHT22;40963;52.168;21.296;2022-12-24T14:17:00;5.20;99.90
55064;DHT22;40963;52.168;21.296;2022-12-24T14:19:48;5.10;99.90
55064;DHT22;40963;52.168;21.296;2022-12-24T14:25:22;5.00;99.90
55064;DHT22;40963;52.168;21.296;2022-12-24T14:27:55;5.10;99.90
55064;DHT22;40963;52.168;21.296;2022-12-24T14:30:27;5.00;99.90
55064;DHT22;40963;52.168;21.296;2022-12-24T14:32:54;5.00;99.90
55064;DHT22;40963;52.168;21.296;2022-12-24T14:35:21;5.00;99.90
55064;DHT22;40963;52.168;21.296;2022-12-24T14:37:55;5.00;99.90
55064;DHT22;40963;52.168;21.296;2022-12-24T14:40:25;5.10;99.90
55064;DHT22;40963;52.168;21.296;2022-12-24T14:43:00;5.10;99.90
55064;DHT22;40963;52.168;21.296;2022-12-24T14:48:38;5.10;99.90
55064;DHT22;40963;52.168;21.296;2022-12-24T14:51:27;5.10;99.90
55064;DHT22;40963;52.168;21.296;2022-12-24T14:54:19;5.10;99.90
55064;DHT22;40963;52.168;21.296;2022-12-24T14:57:10;5.10;99.90
55064;DHT22;40963;52.168;21.296;2022-12-24T14:59:58;5.10;99.90
55064;DHT22;40963;52.168;21.296;2022-12-24T15:05:15;5.10;99.90
55064;DHT22;40963;52.168;21.296;2022-12-24T15:08:02;5.00;99.90
55064;DHT22;40963;52.168;21.296;2022-12-24T15:10:35;5.00;99.90
55064;DHT22;40963;52.168;21.296;2022-12-24T15:13:22;5.00;99.90
55064;DHT22;40963;52.168;21.296;2022-12-24T15:15:51;4.90;99.90
55064;DHT22;40963;52.168;21.296;2022-12-24T15:18:20;4.90;99.90
55064;DHT22;40963;52.168;21.296;2022-12-24T15:20:50;4.80;99.90
55064;DHT22;40963;52.168;21.296;2022-12-24T15:23:21;4.80;99.90
55064;DHT22;40963;52.168;21.296;2022-12-24T15:25:50;4.80;99.90
55064;DHT22;40963;52.168;21.296;2022-12-24T15:28:17;4.70;99.90
55064;DHT22;40963;52.168;21.296;2022-12-24T15:30:44;4.70;99.90
55064;DHT22;40963;52.168;21.296;2022-12-24T15:33:10;4.70;99.90
55064;DHT22;40963;52.168;21.296;2022-12-24T15:35:47;4.70;99.90
55064;DHT22;40963;52.168;21.296;2022-12-24T15:38:27;4.60;99.90
55064;DHT22;40963;52.168;21.296;2022-12-24T15:40:54;4.60;99.90
55064;DHT22;40963;52.168;21.296;2022-12-24T15:43:21;4.60;99.90
55064;DHT22;40963;52.168;21.296;2022-12-24T15:45:47;4.60;99.90
55064;DHT22;40963;52.168;21.296;2022-12-24T15:48:25;4.50;99.90
55064;DHT22;40963;52.168;21.296;2022-12-24T15:50:55;4.50;99.90
55064;DHT22;40963;52.168;21.296;2022-12-24T15:53:28;4.50;99.90
55064;DHT22;40963;52.168;21.296;2022-12-24T15:56:07;4.50;99.90
55064;DHT22;40963;52.168;21.296;2022-12-24T15:58:36;4.50;99.90
55064;DHT22;40963;52.168;21.296;2022-12-24T16:03:36;4.40;99.90
55064;DHT22;40963;52.168;21.296;2022-12-24T16:06:07;4.40;99.90
55064;DHT22;40963;52.168;21.296;2022-12-24T16:08:36;4.40;99.90
55064;DHT22;40963;52.168;21.296;2022-12-24T16:16:18;4.40;99.90
55064;DHT22;40963;52.168;21.296;2022-12-24T16:18:58;4.40;99.90
55064;DHT22;40963;52.168;21.296;2022-12-24T16:21:28;4.40;99.90
55064;DHT22;40963;52.168;21.296;2022-12-24T16:23:57;4.30;99.90
55064;DHT22;40963;52.168;21.296;2022-12-24T16:26:28;4.40;99.90
55064;DHT22;40963;52.168;21.296;2022-12-24T16:28:54;4.40;99.90
55064;DHT22;40963;52.168;21.296;2022-12-24T16:31:58;4.30;99.90
55064;DHT22;40963;52.168;21.296;2022-12-24T16:34:25;4.30;99.90
55064;DHT22;40963;52.168;21.296;2022-12-24T16:36:51;4.30;99.90
55064;DHT22;40963;52.168;21.296;2022-12-24T16:39:25;4.30;99.90
55064;DHT22;40963;52.168;21.296;2022-12-24T16:41:56;4.30;99.90
55064;DHT22;40963;52.168;21.296;2022-12-24T16:44:41;4.30;99.90
55064;DHT22;40963;52.168;21.296;2022-12-24T16:47:20;4.30;99.90
55064;DHT22;40963;52.168;21.296;2022-12-24T16:49:46;4.30;99.90
55064;DHT22;40963;52.168;21.296;2022-12-24T16:52:24;4.30;99.90
55064;DHT22;40963;52.168;21.296;2022-12-24T16:54:53;4.30;99.90
55064;DHT22;40963;52.168;21.296;2022-12-24T16:57:19;4.30;99.90
55064;DHT22;40963;52.168;21.296;2022-12-24T16:59:45;4.30;99.90
55064;DHT22;40963;52.168;21.296;2022-12-24T17:02:17;4.30;99.90
55064;DHT22;40963;52.168;21.296;2022-12-24T17:04:43;4.30;99.90
55064;DHT22;40963;52.168;21.296;2022-12-24T17:07:11;4.30;99.90
55064;DHT22;40963;52.168;21.296;2022-12-24T17:09:37;4.30;99.90
55064;DHT22;40963;52.168;21.296;2022-12-24T17:12:02;4.40;99.90
55064;DHT22;40963;52.168;21.296;2022-12-24T17:14:28;4.40;99.90
55064;DHT22;40963;52.168;21.296;2022-12-24T17:16:54;4.30;99.90
55064;DHT22;40963;52.168;21.296;2022-12-24T17:19:19;4.30;99.90
55064;DHT22;40963;52.168;21.296;2022-12-24T17:21:45;4.40;99.90
55064;DHT22;40963;52.168;21.296;2022-12-24T17:24:10;4.30;99.90
55064;DHT22;40963;52.168;21.296;2022-12-24T17:26:37;4.30;99.90
55064;DHT22;40963;52.168;21.296;2022-12-24T17:29:02;4.30;99.90
55064;DHT22;40963;52.168;21.296;2022-12-24T17:31:30;4.30;99.90
55064;DHT22;40963;52.168;21.296;2022-12-24T17:33:57;4.30;99.90
55064;DHT22;40963;52.168;21.296;2022-12-24T17:36:23;4.30;99.90
55064;DHT22;40963;52.168;21.296;2022-12-24T17:38:49;4.30;99.90
55064;DHT22;40963;52.168;21.296;2022-12-24T17:41:18;4.20;99.90
55064;DHT22;40963;52.168;21.296;2022-12-24T17:43:43;4.20;99.90
55064;DHT22;40963;52.168;21.296;2022-12-24T17:46:19;4.10;99.90
55064;DHT22;40963;52.168;21.296;2022-12-24T17:48:49;4.10;99.90